Time;durP1;ratioP1;P1;durP2;ratioP2;P2;SDS_P1;SDS_P2;PMS_P1;PMS_P2;Temp;Humidity;BMP_temperature;BMP_pressure;BME280_temperature;BME280_humidity;BME280_pressure;Samples;Min_cycle;Max_cycle;Signal;HPM_P1;HPM_P2
2021/10/05 00:00:59;;;;;;;;;;;12.30;99.90;;;;;;5076799;28;19912;-81
2021/10/05 00:03:26;;;;;;;;;;;12.20;99.90;;;;;;5076290;28;20228;-82
2021/10/05 00:05:52;;;;;;;;;;;12.20;99.90;;;;;;5074777;28;19908;-82
2021/10/05 00:08:17;;;;;;;;;;;12.20;99.90;;;;;;5075956;28;19962;-82
2021/10/05 00:10:43;;;;;;;;;;;12.20;99.90;;;;;;5075461;28;20017;-82
2021/10/05 00:13:08;;;;;;;;;;;12.20;99.90;;;;;;5084888;28;19939;-81
2021/10/05 00:15:34;;;;;;;;;;;12.20;99.90;;;;;;5079762;28;20326;-83
2021/10/05 00:18:00;;;;;;;;;;;12.20;99.90;;;;;;5075614;28;19959;-81
2021/10/05 00:20:26;;;;;;;;;;;12.20;99.90;;;;;;5064651;28;19917;-83
2021/10/05 00:22:51;;;;;;;;;;;12.20;99.90;;;;;;5071975;28;19924;-82
2021/10/05 00:25:17;;;;;;;;;;;12.20;99.90;;;;;;5063740;28;19908;-82
2021/10/05 00:27:43;;;;;;;;;;;12.20;99.90;;;;;;5060521;28;20334;-82
2021/10/05 00:30:09;;;;;;;;;;;12.20;99.90;;;;;;5086309;28;19912;-84
2021/10/05 00:32:34;;;;;;;;;;;12.20;99.90;;;;;;5079340;28;19923;-86
2021/10/05 00:35:00;;;;;;;;;;;12.20;99.90;;;;;;5074212;28;19918;-83
2021/10/05 00:37:26;;;;;;;;;;;12.20;99.90;;;;;;5077867;28;20315;-83
2021/10/05 00:39:51;;;;;;;;;;;12.20;99.90;;;;;;5075458;28;19958;-82
2021/10/05 00:42:17;;;;;;;;;;;12.20;99.90;;;;;;5074177;28;20223;-81
2021/10/05 00:44:43;;;;;;;;;;;12.20;99.90;;;;;;5078687;28;19908;-83
2021/10/05 00:47:10;;;;;;;;;;;12.20;99.90;;;;;;5084499;28;19923;-85
2021/10/05 00:49:37;;;;;;;;;;;12.30;99.90;;;;;;5074912;28;19923;-83
2021/10/05 00:52:03;;;;;;;;;;;12.20;99.90;;;;;;5075049;28;19912;-81
2021/10/05 00:54:32;;;;;;;;;;;12.20;99.90;;;;;;5075281;28;19915;-83
2021/10/05 00:56:58;;;;;;;;;;;12.20;99.90;;;;;;5066990;28;20007;-80
2021/10/05 00:59:23;;;;;;;;;;;12.20;99.90;;;;;;5072509;28;19999;-81
2021/10/05 01:01:49;;;;;;;;;;;12.20;99.90;;;;;;5077990;28;20015;-81
2021/10/05 01:04:15;;;;;;;;;;;12.20;99.90;;;;;;5068652;28;19909;-80
2021/10/05 01:06:47;;;;;;;;;;;12.10;99.90;;;;;;5093204;28;19916;-83
2021/10/05 01:09:14;;;;;;;;;;;12.10;99.90;;;;;;5066808;28;19912;-82
2021/10/05 01:11:39;;;;;;;;;;;12.10;99.90;;;;;;5084698;28;20337;-82
2021/10/05 01:14:06;;;;;;;;;;;12.00;99.90;;;;;;5079733;28;19951;-90
2021/10/05 01:16:32;;;;;;;;;;;12.00;99.90;;;;;;5074186;28;19916;-82
2021/10/05 01:18:57;;;;;;;;;;;12.00;99.90;;;;;;5074433;28;19916;-82
2021/10/05 01:21:23;;;;;;;;;;;12.00;99.90;;;;;;5061775;28;20211;-80
2021/10/05 01:23:48;;;;;;;;;;;12.00;99.90;;;;;;5124927;27;19927;-83
2021/10/05 01:26:14;;;;;;;;;;;12.00;99.90;;;;;;5081518;28;19924;-83
2021/10/05 01:28:39;;;;;;;;;;;12.10;99.90;;;;;;5082430;28;19908;-83
2021/10/05 01:31:05;;;;;;;;;;;12.10;99.90;;;;;;5074782;28;19909;-81
2021/10/05 01:33:31;;;;;;;;;;;12.10;99.90;;;;;;5073376;28;20698;-82
2021/10/05 01:35:56;;;;;;;;;;;12.10;99.90;;;;;;5074892;28;19920;-79
2021/10/05 01:38:22;;;;;;;;;;;12.10;99.90;;;;;;5074218;28;20068;-81
2021/10/05 01:40:47;;;;;;;;;;;12.10;99.90;;;;;;5083530;28;20054;-85
2021/10/05 01:43:13;;;;;;;;;;;12.10;99.90;;;;;;5076291;28;19913;-81
2021/10/05 01:45:40;;;;;;;;;;;12.10;99.90;;;;;;5078005;28;19960;-84
2021/10/05 01:48:06;;;;;;;;;;;12.10;99.90;;;;;;5074250;28;19912;-82
2021/10/05 01:50:32;;;;;;;;;;;12.10;99.90;;;;;;5075306;28;19912;-84
2021/10/05 01:52:58;;;;;;;;;;;12.10;99.90;;;;;;5086246;28;20321;-82
2021/10/05 01:55:23;;;;;;;;;;;12.10;99.90;;;;;;5073602;28;19978;-81
2021/10/05 01:57:49;;;;;;;;;;;12.20;99.90;;;;;;5089299;28;19913;-88
2021/10/05 02:00:15;;;;;;;;;;;12.20;99.90;;;;;;5074981;28;19943;-80
2021/10/05 02:02:41;;;;;;;;;;;12.20;99.90;;;;;;5072223;28;19912;-81
2021/10/05 02:05:06;;;;;;;;;;;12.20;99.90;;;;;;5073371;28;19916;-82
2021/10/05 02:07:32;;;;;;;;;;;12.20;99.90;;;;;;5073698;28;19914;-81
2021/10/05 02:09:58;;;;;;;;;;;12.20;99.90;;;;;;5074799;28;20317;-83
2021/10/05 02:12:26;;;;;;;;;;;12.20;99.90;;;;;;5074260;28;19919;-81
2021/10/05 02:14:52;;;;;;;;;;;12.10;99.90;;;;;;5059315;28;20311;-80
2021/10/05 02:17:18;;;;;;;;;;;12.10;99.90;;;;;;5074323;28;19920;-81
2021/10/05 02:19:44;;;;;;;;;;;12.10;99.90;;;;;;5086850;28;20372;-81
2021/10/05 02:22:09;;;;;;;;;;;12.10;99.90;;;;;;5074374;28;19919;-82
2021/10/05 02:24:45;;;;;;;;;;;12.10;99.90;;;;;;5072121;28;20231;-81
2021/10/05 02:27:12;;;;;;;;;;;12.10;99.90;;;;;;5106935;28;19920;-82
2021/10/05 02:29:38;;;;;;;;;;;12.10;99.90;;;;;;5070760;28;20406;-86
2021/10/05 02:32:06;;;;;;;;;;;12.00;99.90;;;;;;5079872;28;20310;-84
2021/10/05 02:34:31;;;;;;;;;;;12.00;99.90;;;;;;5062935;28;19920;-89
2021/10/05 02:36:57;;;;;;;;;;;12.00;99.90;;;;;;5092909;28;19908;-85
2021/10/05 02:39:23;;;;;;;;;;;12.00;99.90;;;;;;5073371;28;19908;-82
2021/10/05 02:41:48;;;;;;;;;;;12.00;99.90;;;;;;5065907;28;19959;-88
2021/10/05 02:44:14;;;;;;;;;;;12.00;99.90;;;;;;5070731;28;20288;-87
2021/10/05 02:46:40;;;;;;;;;;;11.90;99.90;;;;;;5062253;28;20339;-84
2021/10/05 02:49:05;;;;;;;;;;;11.90;99.90;;;;;;5074483;28;19912;-86
2021/10/05 02:51:31;;;;;;;;;;;11.90;99.90;;;;;;5069002;28;19955;-84
2021/10/05 02:53:57;;;;;;;;;;;11.90;99.90;;;;;;5064915;28;19909;-86
2021/10/05 02:56:23;;;;;;;;;;;11.90;99.90;;;;;;5080411;28;19916;-84
2021/10/05 02:58:48;;;;;;;;;;;11.80;99.90;;;;;;5067160;28;20307;-88
2021/10/05 03:01:14;;;;;;;;;;;11.80;99.90;;;;;;5068086;28;19991;-90
2021/10/05 03:03:39;;;;;;;;;;;11.80;99.90;;;;;;5066675;28;20606;-89
2021/10/05 03:06:05;;;;;;;;;;;11.80;99.90;;;;;;5066645;28;19952;-85
2021/10/05 03:08:30;;;;;;;;;;;11.80;99.90;;;;;;5073069;28;19909;-86
2021/10/05 03:10:57;;;;;;;;;;;11.80;99.90;;;;;;5070017;28;20334;-85
2021/10/05 03:13:23;;;;;;;;;;;11.80;99.90;;;;;;5084736;28;20244;-88
2021/10/05 03:15:49;;;;;;;;;;;11.80;99.90;;;;;;5063461;28;19913;-85
2021/10/05 03:18:14;;;;;;;;;;;11.80;99.90;;;;;;5072488;28;19912;-87
2021/10/05 03:20:40;;;;;;;;;;;11.70;99.90;;;;;;5072139;28;19924;-85
2021/10/05 03:23:05;;;;;;;;;;;11.70;99.90;;;;;;5073220;28;20011;-83
2021/10/05 03:25:31;;;;;;;;;;;11.70;99.90;;;;;;5072679;28;19916;-85
2021/10/05 03:27:56;;;;;;;;;;;11.60;99.90;;;;;;5077083;28;20014;-80
2021/10/05 03:30:22;;;;;;;;;;;11.60;99.90;;;;;;5076949;28;19916;-85
2021/10/05 03:32:48;;;;;;;;;;;11.60;99.90;;;;;;5083187;28;20070;-85
2021/10/05 03:35:13;;;;;;;;;;;11.60;99.90;;;;;;5077400;28;19916;-83
2021/10/05 03:37:39;;;;;;;;;;;11.50;99.90;;;;;;5077274;28;19919;-85
2021/10/05 03:40:05;;;;;;;;;;;11.50;99.90;;;;;;5120658;27;19962;-85
2021/10/05 03:42:32;;;;;;;;;;;11.50;99.90;;;;;;5084727;28;19951;-82
2021/10/05 03:44:58;;;;;;;;;;;11.50;99.90;;;;;;5075637;28;19930;-83
2021/10/05 03:47:23;;;;;;;;;;;11.50;99.90;;;;;;5076048;28;19943;-84
2021/10/05 03:49:49;;;;;;;;;;;11.50;99.90;;;;;;5082194;28;19926;-86
2021/10/05 03:52:14;;;;;;;;;;;11.40;99.90;;;;;;5075256;28;20246;-82
2021/10/05 03:54:42;;;;;;;;;;;11.40;99.90;;;;;;5075659;28;19956;-88
2021/10/05 03:57:08;;;;;;;;;;;11.50;99.90;;;;;;5077419;28;19999;-87
2021/10/05 03:59:33;;;;;;;;;;;11.40;99.90;;;;;;5065495;28;19952;-91
2021/10/05 04:01:59;;;;;;;;;;;11.50;99.90;;;;;;5064579;28;19920;-88
2021/10/05 04:04:25;;;;;;;;;;;11.50;99.90;;;;;;5077163;28;19909;-83
2021/10/05 04:06:51;;;;;;;;;;;11.50;99.90;;;;;;5077221;28;19912;-86
2021/10/05 04:09:17;;;;;;;;;;;11.50;99.90;;;;;;5076784;28;20563;-82
2021/10/05 04:11:42;;;;;;;;;;;11.50;99.90;;;;;;5077289;28;19916;-95
2021/10/05 04:14:08;;;;;;;;;;;11.50;99.90;;;;;;5077000;28;20642;-87
2021/10/05 04:16:33;;;;;;;;;;;11.50;99.90;;;;;;5070125;28;19908;-85
2021/10/05 04:18:59;;;;;;;;;;;11.50;99.90;;;;;;5077725;28;19916;-87
2021/10/05 04:21:25;;;;;;;;;;;11.50;99.90;;;;;;5106650;28;19970;-88
2021/10/05 04:23:50;;;;;;;;;;;11.50;99.90;;;;;;5074513;28;19923;-87
2021/10/05 04:26:16;;;;;;;;;;;11.50;99.90;;;;;;5077130;28;19931;-86
2021/10/05 04:28:41;;;;;;;;;;;11.50;99.90;;;;;;5075841;28;19917;-86
2021/10/05 04:31:07;;;;;;;;;;;11.40;99.90;;;;;;5077229;28;19919;-77
2021/10/05 04:33:32;;;;;;;;;;;11.50;99.90;;;;;;5075686;28;20246;-87
2021/10/05 04:35:58;;;;;;;;;;;11.50;99.90;;;;;;5076423;28;19908;-90
2021/10/05 04:38:24;;;;;;;;;;;11.40;99.90;;;;;;5076518;28;19946;-95
2021/10/05 04:40:49;;;;;;;;;;;11.50;99.90;;;;;;5086216;28;20203;-87
2021/10/05 04:43:15;;;;;;;;;;;11.50;99.90;;;;;;5084066;28;20219;-91
2021/10/05 04:45:41;;;;;;;;;;;11.40;99.90;;;;;;5082717;28;19949;-90
2021/10/05 04:48:07;;;;;;;;;;;11.50;99.90;;;;;;5083093;28;20284;-84
2021/10/05 04:50:34;;;;;;;;;;;11.40;99.90;;;;;;5075249;28;19965;-85
2021/10/05 04:52:59;;;;;;;;;;;11.50;99.90;;;;;;5076379;28;20015;-83
2021/10/05 04:55:25;;;;;;;;;;;11.50;99.90;;;;;;5079909;28;20069;-90
2021/10/05 04:57:51;;;;;;;;;;;11.50;99.90;;;;;;5075767;28;19919;-92
2021/10/05 05:00:17;;;;;;;;;;;11.50;99.90;;;;;;5079933;28;19960;-85
2021/10/05 05:02:42;;;;;;;;;;;11.50;99.90;;;;;;5085160;28;19912;-89
2021/10/05 05:05:08;;;;;;;;;;;11.40;99.90;;;;;;5086531;28;19912;-85
2021/10/05 05:07:34;;;;;;;;;;;11.40;99.90;;;;;;5079244;28;20020;-92
2021/10/05 05:10:02;;;;;;;;;;;11.50;99.90;;;;;;5089853;28;20393;-84
2021/10/05 05:12:28;;;;;;;;;;;11.40;99.90;;;;;;5083903;28;19913;-77
2021/10/05 05:14:53;;;;;;;;;;;11.50;99.90;;;;;;5082001;28;19921;-88
2021/10/05 05:17:19;;;;;;;;;;;11.50;99.90;;;;;;5082231;28;19978;-90
2021/10/05 05:19:44;;;;;;;;;;;11.50;99.90;;;;;;5078917;28;19912;-89
2021/10/05 05:22:10;;;;;;;;;;;11.50;99.90;;;;;;5082224;28;19912;-87
2021/10/05 05:24:36;;;;;;;;;;;11.50;99.90;;;;;;5088998;28;19916;-89
2021/10/05 05:27:01;;;;;;;;;;;11.50;99.90;;;;;;5088324;28;19924;-88
2021/10/05 05:29:27;;;;;;;;;;;11.50;99.90;;;;;;5083828;28;19923;-79
2021/10/05 05:31:52;;;;;;;;;;;11.50;99.90;;;;;;5079437;28;19913;-86
2021/10/05 05:34:19;;;;;;;;;;;11.50;99.90;;;;;;5083835;28;19916;-82
2021/10/05 05:36:45;;;;;;;;;;;11.50;99.90;;;;;;5082448;28;19920;-87
2021/10/05 05:39:11;;;;;;;;;;;11.50;99.90;;;;;;5082039;28;20211;-88
2021/10/05 05:41:37;;;;;;;;;;;11.50;99.90;;;;;;5086432;28;19956;-81
2021/10/05 05:44:02;;;;;;;;;;;11.50;99.90;;;;;;5079383;28;20052;-85
2021/10/05 05:46:28;;;;;;;;;;;11.50;99.90;;;;;;5110152;28;19916;-86
2021/10/05 05:48:53;;;;;;;;;;;11.50;99.90;;;;;;5075942;28;19919;-86
2021/10/05 05:51:19;;;;;;;;;;;11.50;99.90;;;;;;5073481;28;19919;-86
2021/10/05 05:53:45;;;;;;;;;;;11.50;99.90;;;;;;5074432;28;19912;-83
2021/10/05 05:56:11;;;;;;;;;;;11.40;99.90;;;;;;5083921;28;19913;-90
2021/10/05 05:58:37;;;;;;;;;;;11.50;99.90;;;;;;5080916;28;19927;-86
2021/10/05 06:01:02;;;;;;;;;;;11.50;99.90;;;;;;5075599;28;19962;-82
2021/10/05 06:03:28;;;;;;;;;;;11.50;99.90;;;;;;5071260;28;20310;-81
2021/10/05 06:05:54;;;;;;;;;;;11.50;99.90;;;;;;5069287;28;19913;-85
2021/10/05 06:08:20;;;;;;;;;;;11.40;99.90;;;;;;5067900;28;20226;-81
2021/10/05 06:10:46;;;;;;;;;;;11.40;99.90;;;;;;5069093;28;20280;-83
2021/10/05 06:13:12;;;;;;;;;;;11.40;99.90;;;;;;5073187;28;19912;-83
2021/10/05 06:15:39;;;;;;;;;;;11.40;99.90;;;;;;5081378;28;21061;-83
2021/10/05 06:18:04;;;;;;;;;;;11.40;99.90;;;;;;5082480;28;19916;-81
2021/10/05 06:20:30;;;;;;;;;;;11.40;99.90;;;;;;5080693;28;20283;-82
2021/10/05 06:22:59;;;;;;;;;;;11.40;99.90;;;;;;5083688;28;20012;-83
2021/10/05 06:25:26;;;;;;;;;;;11.40;99.90;;;;;;5102342;28;19928;-79
2021/10/05 06:27:53;;;;;;;;;;;11.40;99.90;;;;;;5083796;28;19921;-83
2021/10/05 06:30:19;;;;;;;;;;;11.40;99.90;;;;;;5084090;28;19920;-83
2021/10/05 06:32:47;;;;;;;;;;;11.40;99.90;;;;;;5085178;28;19916;-83
2021/10/05 06:35:13;;;;;;;;;;;11.50;99.90;;;;;;5086526;28;20356;-88
2021/10/05 06:37:39;;;;;;;;;;;11.50;99.90;;;;;;5080633;28;19913;-83
2021/10/05 06:40:06;;;;;;;;;;;11.50;99.90;;;;;;5095390;28;19916;-86
2021/10/05 06:42:47;;;;;;;;;;;11.50;99.90;;;;;;5087890;28;20192;-88
2021/10/05 06:45:18;;;;;;;;;;;11.60;99.90;;;;;;5084778;28;20007;-82
2021/10/05 06:47:44;;;;;;;;;;;11.70;99.90;;;;;;5086461;28;20007;-84
2021/10/05 06:50:10;;;;;;;;;;;11.70;99.90;;;;;;5088148;28;19928;-86
2021/10/05 06:52:36;;;;;;;;;;;11.90;99.90;;;;;;5086838;28;19912;-83
2021/10/05 06:55:03;;;;;;;;;;;12.20;99.90;;;;;;5079382;28;19993;-84
2021/10/05 06:57:28;;;;;;;;;;;12.50;99.90;;;;;;5087775;28;19916;-82
2021/10/05 06:59:54;;;;;;;;;;;12.60;99.90;;;;;;5089665;28;19916;-84
2021/10/05 07:02:20;;;;;;;;;;;12.80;99.90;;;;;;5087695;28;20319;-83
2021/10/05 07:04:46;;;;;;;;;;;13.00;99.90;;;;;;5085339;28;19963;-84
2021/10/05 07:07:12;;;;;;;;;;;13.10;99.90;;;;;;5084126;28;19974;-88
2021/10/05 07:09:37;;;;;;;;;;;13.40;99.90;;;;;;5087426;28;19959;-76
2021/10/05 07:12:04;;;;;;;;;;;13.70;99.90;;;;;;5084737;28;19918;-85
2021/10/05 07:14:29;;;;;;;;;;;13.80;99.90;;;;;;5094871;28;19920;-88
2021/10/05 07:16:55;;;;;;;;;;;13.90;99.90;;;;;;5072256;28;20277;-86
2021/10/05 07:19:21;;;;;;;;;;;14.10;99.90;;;;;;5085038;28;19920;-83
2021/10/05 07:21:47;;;;;;;;;;;14.20;99.90;;;;;;5088182;28;20316;-80
2021/10/05 07:24:12;;;;;;;;;;;14.40;99.90;;;;;;5076070;28;19917;-82
2021/10/05 07:26:38;;;;;;;;;;;14.60;99.90;;;;;;5067509;28;20019;-80
2021/10/05 07:29:03;;;;;;;;;;;14.70;99.90;;;;;;5079611;28;20481;-88
2021/10/05 07:31:34;;;;;;;;;;;14.70;99.90;;;;;;5078311;28;20188;-80
2021/10/05 07:34:00;;;;;;;;;;;14.70;99.90;;;;;;5104480;27;19920;-83
2021/10/05 07:36:26;;;;;;;;;;;14.70;99.90;;;;;;5075809;28;19923;-82
2021/10/05 07:38:52;;;;;;;;;;;14.80;99.90;;;;;;5076560;28;19917;-83
2021/10/05 07:41:17;;;;;;;;;;;15.10;99.90;;;;;;5077899;28;20288;-85
2021/10/05 07:43:43;;;;;;;;;;;15.20;99.90;;;;;;5080048;28;19917;-82
2021/10/05 07:46:09;;;;;;;;;;;15.50;99.90;;;;;;5080927;28;19923;-81
2021/10/05 07:48:35;;;;;;;;;;;15.70;99.90;;;;;;5101729;28;20330;-83
2021/10/05 07:51:01;;;;;;;;;;;15.80;99.90;;;;;;5085572;28;19954;-82
2021/10/05 07:53:26;;;;;;;;;;;16.10;99.90;;;;;;5083577;28;19916;-89
2021/10/05 07:55:52;;;;;;;;;;;16.10;99.90;;;;;;5084427;28;20310;-87
2021/10/05 07:58:17;;;;;;;;;;;16.10;99.90;;;;;;5083608;28;19913;-79
2021/10/05 08:00:43;;;;;;;;;;;16.50;99.90;;;;;;5082538;28;19918;-86
2021/10/05 08:03:09;;;;;;;;;;;16.70;99.90;;;;;;5084546;28;19916;-84
2021/10/05 08:05:34;;;;;;;;;;;16.90;99.90;;;;;;5083304;28;20212;-83
2021/10/05 08:08:05;;;;;;;;;;;17.00;99.90;;;;;;5084142;28;20214;-91
2021/10/05 08:10:41;;;;;;;;;;;17.10;99.90;;;;;;5084511;28;19919;-80
2021/10/05 08:13:07;;;;;;;;;;;16.90;99.90;;;;;;5073232;28;19921;-82
2021/10/05 08:15:35;;;;;;;;;;;16.90;99.90;;;;;;5071885;28;20004;-82
2021/10/05 08:18:01;;;;;;;;;;;16.80;99.90;;;;;;5090170;28;19913;-81
2021/10/05 08:20:27;;;;;;;;;;;16.60;99.90;;;;;;5081261;28;20027;-82
2021/10/05 08:22:54;;;;;;;;;;;16.50;99.90;;;;;;5071842;28;19967;-88
2021/10/05 08:25:21;;;;;;;;;;;16.40;99.90;;;;;;5075981;28;19970;-89
2021/10/05 08:27:47;;;;;;;;;;;16.30;99.90;;;;;;5071846;28;19936;-78
2021/10/05 08:30:13;;;;;;;;;;;16.20;99.90;;;;;;5066700;28;19917;-90
2021/10/05 08:32:39;;;;;;;;;;;16.10;99.90;;;;;;5064466;28;19919;-87
2021/10/05 08:35:05;;;;;;;;;;;16.10;99.90;;;;;;5066146;28;19962;-84
2021/10/05 08:37:31;;;;;;;;;;;16.00;99.90;;;;;;5078292;28;19908;-84
2021/10/05 08:39:57;;;;;;;;;;;16.10;99.90;;;;;;5079726;28;20418;-75
2021/10/05 08:42:23;;;;;;;;;;;16.00;99.90;;;;;;5085149;28;19999;-83
2021/10/05 08:44:49;;;;;;;;;;;15.90;99.90;;;;;;5077927;28;19999;-86
2021/10/05 08:47:16;;;;;;;;;;;15.80;99.90;;;;;;5077553;28;19913;-86
2021/10/05 08:49:43;;;;;;;;;;;15.80;99.90;;;;;;5065962;28;20307;-84
2021/10/05 08:52:09;;;;;;;;;;;15.80;99.90;;;;;;5081490;28;20712;-85
2021/10/05 08:54:35;;;;;;;;;;;15.80;99.90;;;;;;5074243;28;20335;-84
2021/10/05 08:57:00;;;;;;;;;;;15.90;99.90;;;;;;5068641;28;19948;-84
2021/10/05 08:59:27;;;;;;;;;;;16.10;99.90;;;;;;5071237;28;20046;-86
2021/10/05 09:01:53;;;;;;;;;;;16.30;99.90;;;;;;5069565;28;19916;-84
2021/10/05 09:04:21;;;;;;;;;;;16.40;99.90;;;;;;5075563;28;20015;-82
2021/10/05 09:06:55;;;;;;;;;;;16.40;99.90;;;;;;5067590;28;19916;-83
2021/10/05 09:09:42;;;;;;;;;;;16.50;99.90;;;;;;5065728;28;19920;-78
2021/10/05 09:12:20;;;;;;;;;;;16.50;99.90;;;;;;5073877;28;19948;-80
2021/10/05 09:14:47;;;;;;;;;;;16.60;99.90;;;;;;5068975;28;19920;-84
2021/10/05 09:17:18;;;;;;;;;;;16.80;99.90;;;;;;5065460;28;19913;-85
2021/10/05 09:19:43;;;;;;;;;;;16.90;99.90;;;;;;5070183;28;19920;-89
2021/10/05 09:22:14;;;;;;;;;;;16.70;99.90;;;;;;5066590;28;19924;-93
2021/10/05 09:24:40;;;;;;;;;;;16.60;99.90;;;;;;5065550;28;19950;-80
2021/10/05 09:27:05;;;;;;;;;;;16.60;99.90;;;;;;5068880;28;20319;-87
2021/10/05 09:29:32;;;;;;;;;;;16.50;99.90;;;;;;5106480;28;19966;-87
2021/10/05 09:32:01;;;;;;;;;;;16.40;99.90;;;;;;5075718;28;19917;-86
2021/10/05 09:34:35;;;;;;;;;;;16.50;99.90;;;;;;5076234;28;19908;-87
2021/10/05 09:37:04;;;;;;;;;;;16.50;99.90;;;;;;5073604;28;20180;-87
2021/10/05 09:39:37;;;;;;;;;;;16.60;99.90;;;;;;5073520;28;19908;-86
2021/10/05 09:42:04;;;;;;;;;;;16.70;99.90;;;;;;5073104;28;19913;-82
2021/10/05 09:44:29;;;;;;;;;;;16.70;99.90;;;;;;5077441;28;20488;-81
2021/10/05 09:46:55;;;;;;;;;;;16.70;99.90;;;;;;5077631;28;19924;-83
2021/10/05 09:49:20;;;;;;;;;;;16.70;99.90;;;;;;5083722;28;20569;-84
2021/10/05 09:51:55;;;;;;;;;;;16.70;99.90;;;;;;5083899;28;20471;-81
2021/10/05 09:54:21;;;;;;;;;;;16.70;99.90;;;;;;5080202;28;19990;-84
2021/10/05 09:56:46;;;;;;;;;;;16.80;99.90;;;;;;5082612;28;19922;-86
2021/10/05 09:59:12;;;;;;;;;;;16.80;99.90;;;;;;5086061;28;19938;-87
2021/10/05 10:01:38;;;;;;;;;;;16.80;99.90;;;;;;5083449;28;19966;-87
2021/10/05 10:04:04;;;;;;;;;;;16.80;99.90;;;;;;5086296;28;19922;-86
2021/10/05 10:06:30;;;;;;;;;;;16.80;99.90;;;;;;5086282;28;19920;-89
2021/10/05 10:08:57;;;;;;;;;;;16.80;99.90;;;;;;5085437;28;20015;-86
2021/10/05 10:11:23;;;;;;;;;;;16.80;99.90;;;;;;5085551;28;20037;-83
2021/10/05 10:13:50;;;;;;;;;;;16.80;99.90;;;;;;5088059;28;20006;-81
2021/10/05 10:16:16;;;;;;;;;;;16.90;99.90;;;;;;5087293;28;19923;-78
2021/10/05 10:18:54;;;;;;;;;;;16.80;99.90;;;;;;5083401;28;19912;-81
2021/10/05 10:21:28;;;;;;;;;;;16.90;99.90;;;;;;5086701;28;19920;-79
2021/10/05 10:24:09;;;;;;;;;;;16.90;99.90;;;;;;5084319;28;19977;-81
2021/10/05 10:26:35;;;;;;;;;;;17.00;99.90;;;;;;5085026;28;19924;-86
2021/10/05 10:29:00;;;;;;;;;;;17.00;99.90;;;;;;5075708;28;19966;-79
2021/10/05 10:31:27;;;;;;;;;;;17.00;99.90;;;;;;5090428;28;19927;-80
2021/10/05 10:33:53;;;;;;;;;;;17.10;99.90;;;;;;5070650;28;19973;-80
2021/10/05 10:36:28;;;;;;;;;;;17.10;99.90;;;;;;5068951;28;19920;-84
2021/10/05 10:39:04;;;;;;;;;;;17.10;99.90;;;;;;5081875;28;20223;-80
2021/10/05 10:41:29;;;;;;;;;;;17.10;99.90;;;;;;5065939;28;19920;-85
2021/10/05 10:44:01;;;;;;;;;;;17.00;99.90;;;;;;5076515;28;19909;-79
2021/10/05 10:46:28;;;;;;;;;;;17.00;99.90;;;;;;5072003;28;19927;-88
2021/10/05 10:48:55;;;;;;;;;;;17.00;99.90;;;;;;5069707;28;19913;-86
2021/10/05 10:51:20;;;;;;;;;;;16.90;99.90;;;;;;5077545;28;19908;-83
2021/10/05 10:53:46;;;;;;;;;;;16.80;99.90;;;;;;5072923;28;19945;-84
2021/10/05 10:56:26;;;;;;;;;;;16.80;99.90;;;;;;5077037;28;19917;-80
2021/10/05 10:58:56;;;;;;;;;;;16.70;99.90;;;;;;5086875;28;19928;-80
2021/10/05 11:01:33;;;;;;;;;;;16.60;99.90;;;;;;5078756;28;19978;-87
2021/10/05 11:04:03;;;;;;;;;;;16.50;99.90;;;;;;5081386;28;19977;-91
2021/10/05 11:06:28;;;;;;;;;;;16.40;99.90;;;;;;5083986;28;19916;-81
2021/10/05 11:08:54;;;;;;;;;;;16.30;99.90;;;;;;5085119;28;20060;-82
2021/10/05 11:11:32;;;;;;;;;;;16.20;99.90;;;;;;5086482;28;19912;-84
2021/10/05 11:14:01;;;;;;;;;;;16.20;99.90;;;;;;5082876;28;19982;-81
2021/10/05 11:16:28;;;;;;;;;;;16.20;99.90;;;;;;5083882;28;19924;-77
2021/10/05 11:19:03;;;;;;;;;;;16.10;99.90;;;;;;5086261;28;19923;-77
2021/10/05 11:21:29;;;;;;;;;;;16.20;99.90;;;;;;5084712;28;19935;-85
2021/10/05 11:23:55;;;;;;;;;;;16.20;99.90;;;;;;5087703;28;20007;-82
2021/10/05 11:26:29;;;;;;;;;;;16.20;99.90;;;;;;5087625;28;20014;-78
2021/10/05 11:28:54;;;;;;;;;;;16.30;99.90;;;;;;5077285;28;20011;-82
2021/10/05 11:31:20;;;;;;;;;;;16.40;99.90;;;;;;5085873;28;20010;-87
2021/10/05 11:33:46;;;;;;;;;;;16.50;99.90;;;;;;5084265;28;19920;-82
2021/10/05 11:36:21;;;;;;;;;;;16.50;99.90;;;;;;5084159;28;20315;-81
2021/10/05 11:38:48;;;;;;;;;;;16.40;99.90;;;;;;5083717;28;19921;-81
2021/10/05 11:41:14;;;;;;;;;;;16.30;99.90;;;;;;5086339;28;19915;-80
2021/10/05 11:43:41;;;;;;;;;;;16.30;99.90;;;;;;5086816;28;20329;-84
2021/10/05 11:46:09;;;;;;;;;;;16.20;99.90;;;;;;5082773;28;19920;-78
2021/10/05 11:48:39;;;;;;;;;;;16.10;99.90;;;;;;5086523;28;19983;-80
2021/10/05 11:51:05;;;;;;;;;;;16.10;99.90;;;;;;5084989;28;19909;-83
2021/10/05 11:53:34;;;;;;;;;;;16.00;99.90;;;;;;5081459;28;20307;-82
2021/10/05 11:56:08;;;;;;;;;;;16.00;99.90;;;;;;5081794;28;19973;-81
2021/10/05 11:58:47;;;;;;;;;;;16.00;99.90;;;;;;5082353;28;19912;-80
2021/10/05 12:01:32;;;;;;;;;;;15.90;99.90;;;;;;5083071;28;19919;-81
2021/10/05 12:04:04;;;;;;;;;;;15.90;99.90;;;;;;5080258;28;19920;-83
2021/10/05 12:06:38;;;;;;;;;;;15.90;99.90;;;;;;5073406;28;19924;-88
2021/10/05 12:09:05;;;;;;;;;;;15.90;99.90;;;;;;5067698;28;20018;-80
2021/10/05 12:11:41;;;;;;;;;;;15.90;99.90;;;;;;5079220;28;20303;-81
2021/10/05 12:14:07;;;;;;;;;;;15.80;99.90;;;;;;5080945;28;19912;-81
2021/10/05 12:16:33;;;;;;;;;;;15.80;99.90;;;;;;5083842;28;20015;-81
2021/10/05 12:18:59;;;;;;;;;;;15.80;99.90;;;;;;5085847;28;20015;-78
2021/10/05 12:21:26;;;;;;;;;;;15.70;99.90;;;;;;5081541;28;20378;-77
2021/10/05 12:23:53;;;;;;;;;;;15.60;99.90;;;;;;5082467;28;19916;-78
2021/10/05 12:26:18;;;;;;;;;;;15.60;99.90;;;;;;5083880;28;19921;-77
2021/10/05 12:29:04;;;;;;;;;;;15.50;99.90;;;;;;5085020;28;19916;-78
2021/10/05 12:31:29;;;;;;;;;;;15.40;99.90;;;;;;5084615;28;19938;-78
2021/10/05 12:33:59;;;;;;;;;;;15.20;99.90;;;;;;5083520;28;19946;-77
2021/10/05 12:36:25;;;;;;;;;;;15.20;99.90;;;;;;5083145;28;19956;-76
2021/10/05 12:38:50;;;;;;;;;;;15.10;99.90;;;;;;5080326;28;19912;-76
2021/10/05 12:41:16;;;;;;;;;;;15.00;99.90;;;;;;5082021;28;20284;-76
2021/10/05 12:43:42;;;;;;;;;;;14.90;99.90;;;;;;5081119;28;19912;-76
2021/10/05 12:46:09;;;;;;;;;;;14.80;99.90;;;;;;5083177;28;19913;-75
2021/10/05 12:48:37;;;;;;;;;;;14.70;99.90;;;;;;5082758;28;19919;-75
2021/10/05 12:51:11;;;;;;;;;;;14.60;99.90;;;;;;5082014;28;19912;-76
2021/10/05 12:53:37;;;;;;;;;;;14.50;99.90;;;;;;5083352;28;20286;-75
2021/10/05 12:56:03;;;;;;;;;;;14.50;99.90;;;;;;5083003;28;19916;-76
2021/10/05 12:58:29;;;;;;;;;;;14.40;99.90;;;;;;5084375;28;19924;-76
2021/10/05 13:00:55;;;;;;;;;;;14.40;99.90;;;;;;5067512;28;19916;-75
2021/10/05 13:03:21;;;;;;;;;;;14.30;99.90;;;;;;5102652;27;20002;-76
2021/10/05 13:05:47;;;;;;;;;;;14.20;99.90;;;;;;5069744;28;20027;-84
2021/10/05 13:08:12;;;;;;;;;;;14.20;99.90;;;;;;5073561;28;20223;-75
2021/10/05 13:10:38;;;;;;;;;;;14.10;99.90;;;;;;5067019;28;20036;-75
2021/10/05 13:13:03;;;;;;;;;;;14.10;99.90;;;;;;5065173;28;20367;-75
2021/10/05 13:15:30;;;;;;;;;;;14.10;99.90;;;;;;5073154;28;19923;-76
2021/10/05 13:17:55;;;;;;;;;;;14.00;99.90;;;;;;5076098;28;19935;-76
2021/10/05 13:20:22;;;;;;;;;;;14.10;99.90;;;;;;5084808;28;20335;-76
2021/10/05 13:22:48;;;;;;;;;;;14.10;99.90;;;;;;5065622;28;20251;-77
2021/10/05 13:25:14;;;;;;;;;;;14.10;99.90;;;;;;5070650;28;19921;-75
2021/10/05 13:27:40;;;;;;;;;;;14.10;99.90;;;;;;5071548;28;20231;-75
2021/10/05 13:30:07;;;;;;;;;;;14.10;99.90;;;;;;5070091;28;19952;-75
2021/10/05 13:32:33;;;;;;;;;;;14.10;99.90;;;;;;5082568;28;19938;-77
2021/10/05 13:35:00;;;;;;;;;;;14.10;99.90;;;;;;5083596;28;19916;-75
2021/10/05 13:37:27;;;;;;;;;;;14.00;99.90;;;;;;5082249;28;19913;-76
2021/10/05 13:39:52;;;;;;;;;;;14.10;99.90;;;;;;5084259;28;20216;-76
2021/10/05 13:42:18;;;;;;;;;;;14.10;99.90;;;;;;5083625;28;20021;-76
2021/10/05 13:44:43;;;;;;;;;;;14.00;99.90;;;;;;5079427;28;20299;-76
2021/10/05 13:47:09;;;;;;;;;;;14.00;99.90;;;;;;5079561;28;20195;-76
2021/10/05 13:49:34;;;;;;;;;;;14.00;99.90;;;;;;5081268;28;19935;-76
2021/10/05 13:52:00;;;;;;;;;;;14.00;99.90;;;;;;5080564;28;19922;-77
2021/10/05 13:54:26;;;;;;;;;;;14.00;99.90;;;;;;5089114;28;19920;-76
2021/10/05 13:56:51;;;;;;;;;;;14.00;99.90;;;;;;5080214;28;19916;-76
2021/10/05 13:59:17;;;;;;;;;;;14.00;99.90;;;;;;5083832;28;19916;-75
2021/10/05 14:01:42;;;;;;;;;;;14.00;99.90;;;;;;5080812;28;20283;-75
2021/10/05 14:04:08;;;;;;;;;;;13.90;99.90;;;;;;5082126;28;19921;-75
2021/10/05 14:06:33;;;;;;;;;;;13.90;99.90;;;;;;5082668;28;20568;-75
2021/10/05 14:08:59;;;;;;;;;;;13.90;99.90;;;;;;5080706;28;20334;-75
2021/10/05 14:11:25;;;;;;;;;;;13.80;99.90;;;;;;5084908;28;19959;-74
2021/10/05 14:13:53;;;;;;;;;;;13.80;99.90;;;;;;5081596;28;19920;-76